createdAt,value
2024-02-23T00:01:36.811Z,-34.08
2024-02-23T00:06:41.710Z,-34.02
2024-02-23T00:11:49.254Z,-34.16
2024-02-23T00:16:53.208Z,-34.19
2024-02-23T00:21:56.840Z,-34.31
2024-02-23T00:27:00.638Z,-34.32
2024-02-23T00:32:05.753Z,-34.40
2024-02-23T00:37:09.768Z,-34.90
2024-02-23T00:42:13.454Z,-34.61
2024-02-23T00:47:17.234Z,-34.61
2024-02-23T00:52:21.320Z,-34.64
2024-02-23T00:57:29.362Z,-34.79
2024-02-23T01:02:35.007Z,-34.52
2024-02-23T01:07:38.815Z,-34.52
2024-02-23T01:13:02.914Z,-34.46
2024-02-23T01:18:09.435Z,-34.46
2024-02-23T01:23:13.369Z,-34.47
2024-02-23T01:28:17.006Z,-34.62
2024-02-23T01:33:20.967Z,-34.77
2024-02-23T01:38:26.920Z,-34.87
2024-02-23T01:43:30.632Z,-34.94
2024-02-23T01:48:35.500Z,-34.95
2024-02-23T01:53:39.597Z,-34.95
2024-02-23T01:58:43.691Z,-34.89
2024-02-23T02:03:47.466Z,-34.75
2024-02-23T02:08:51.557Z,-34.36
2024-02-23T02:13:55.382Z,-33.91
2024-02-23T02:18:59.188Z,-33.63
2024-02-23T02:24:03.042Z,-33.83
2024-02-23T02:29:06.940Z,-33.22
2024-02-23T02:34:15.075Z,-32.69
2024-02-23T02:39:18.925Z,-32.33
2024-02-23T02:44:22.810Z,-32.23
2024-02-23T02:49:26.738Z,-31.35
2024-02-23T02:54:30.544Z,-30.86
2024-02-23T02:59:38.299Z,-30.27
2024-02-23T03:04:49.779Z,-29.76
2024-02-23T03:09:54.111Z,-29.36
2024-02-23T03:14:57.791Z,-28.87
2024-02-23T03:20:01.730Z,-28.57
2024-02-23T03:25:11.991Z,-28.42
2024-02-23T03:30:17.370Z,-28.36
2024-02-23T03:35:21.272Z,-28.10
2024-02-23T03:40:24.875Z,-27.80
2024-02-23T03:45:28.540Z,-27.43
2024-02-23T03:50:33.090Z,-27.09
2024-02-23T03:55:36.836Z,-26.65
2024-02-23T04:00:40.778Z,-26.11
2024-02-23T04:05:44.775Z,-25.57
2024-02-23T04:10:48.674Z,-24.95
2024-02-23T04:15:52.512Z,-24.33
2024-02-23T04:20:56.144Z,-23.83
2024-02-23T04:26:01.901Z,-23.35
2024-02-23T04:31:06.551Z,-22.86
2024-02-23T04:36:10.583Z,-22.41
2024-02-23T04:41:14.570Z,-22.09
2024-02-23T04:46:18.276Z,-21.60
2024-02-23T04:51:24.711Z,-21.15
2024-02-23T04:56:28.536Z,-20.73
2024-02-23T05:01:38.799Z,-20.39
2024-02-23T05:06:45.062Z,-20.04
2024-02-23T05:11:49.235Z,-20.05
2024-02-23T05:16:53.119Z,-19.53
2024-02-23T05:21:57.038Z,-19.50
2024-02-23T05:27:03.942Z,-19.72
2024-02-23T05:32:07.957Z,-19.36
2024-02-23T05:37:11.831Z,-19.39
2024-02-23T05:42:15.802Z,-19.50
2024-02-23T05:47:19.524Z,-19.64
2024-02-23T05:52:23.574Z,-19.61
2024-02-23T05:57:28.726Z,-19.65
2024-02-23T06:02:32.839Z,-19.59
2024-02-23T06:07:36.717Z,-19.54
2024-02-23T06:12:40.677Z,-19.74
2024-02-23T06:17:44.603Z,-19.64
2024-02-23T06:22:48.326Z,-19.24
2024-02-23T06:27:52.198Z,-19.20
2024-02-23T06:32:55.986Z,-19.14
2024-02-23T06:37:59.887Z,-19.14
2024-02-23T06:43:04.524Z,-19.03
2024-02-23T06:48:08.742Z,-18.97
2024-02-23T06:53:12.683Z,-18.90
2024-02-23T06:58:18.691Z,-18.84
2024-02-23T07:03:22.622Z,-18.76
2024-02-23T07:08:26.784Z,-18.65
2024-02-23T07:13:32.102Z,-18.63
2024-02-23T07:18:36.000Z,-18.67
2024-02-23T07:23:39.916Z,-18.53
2024-02-23T07:28:43.859Z,-18.48
2024-02-23T07:33:47.853Z,-18.47
2024-02-23T07:38:51.752Z,-18.38
2024-02-23T07:43:55.578Z,-18.38
2024-02-23T07:48:59.384Z,-18.29
2024-02-23T07:54:04.079Z,-18.19
2024-02-23T07:59:08.010Z,-18.09
2024-02-23T08:04:12.162Z,-18.13
2024-02-23T08:09:16.141Z,-18.11
2024-02-23T08:14:19.891Z,-18.13
2024-02-23T08:19:24.482Z,-18.02
2024-02-23T08:24:28.173Z,-18.00
2024-02-23T08:29:32.027Z,-17.90
2024-02-23T08:34:36.123Z,-17.82
2024-02-23T08:39:39.885Z,-17.83
2024-02-23T08:44:43.899Z,-17.88
2024-02-23T08:49:48.304Z,-17.88
2024-02-23T08:54:53.725Z,-17.90
2024-02-23T09:00:00.015Z,-17.92
2024-02-23T09:05:04.889Z,-17.89
2024-02-23T09:10:09.032Z,-17.88
2024-02-23T09:15:13.091Z,-17.88
2024-02-23T09:20:17.721Z,-17.92
2024-02-23T09:25:21.611Z,-17.93
2024-02-23T09:30:25.451Z,-17.90
2024-02-23T09:35:29.210Z,-17.94
2024-02-23T09:40:33.194Z,-17.96
2024-02-23T09:45:37.131Z,-17.96
2024-02-23T09:50:42.900Z,-17.99
2024-02-23T09:55:47.701Z,-17.98
2024-02-23T10:00:52.897Z,-17.98
2024-02-23T10:05:56.651Z,-18.02
2024-02-23T10:11:02.999Z,-17.98
2024-02-23T10:16:15.090Z,-17.94
2024-02-23T10:21:20.349Z,-17.84
2024-02-23T10:26:24.763Z,-17.89
2024-02-23T10:31:30.157Z,-17.96
2024-02-23T10:36:34.152Z,-18.28
2024-02-23T10:41:41.323Z,-18.13
2024-02-23T10:46:47.139Z,-18.27
2024-02-23T10:51:53.944Z,-18.29
2024-02-23T10:56:58.716Z,-18.35
2024-02-23T11:02:03.631Z,-18.39
2024-02-23T11:07:16.081Z,-18.46
2024-02-23T11:12:31.717Z,-18.60
2024-02-23T11:17:41.556Z,-18.76
2024-02-23T11:22:45.447Z,-18.85
2024-02-23T11:27:53.163Z,-19.06
2024-02-23T11:33:01.609Z,-19.27
2024-02-23T11:38:07.761Z,-19.57
2024-02-23T11:43:12.533Z,-19.81
2024-02-23T11:48:16.572Z,-20.04
2024-02-23T11:53:23.247Z,-20.27
2024-02-23T11:58:26.848Z,-20.42
2024-02-23T12:03:32.319Z,-20.62
2024-02-23T12:08:40.267Z,-20.84
2024-02-23T12:13:44.644Z,-21.07
2024-02-23T12:18:57.447Z,-21.33
2024-02-23T12:24:01.153Z,-21.51
2024-02-23T12:29:05.971Z,-21.69
2024-02-23T12:34:17.460Z,-21.83
2024-02-23T12:39:21.169Z,-22.02
2024-02-23T12:44:25.268Z,-23.08
2024-02-23T12:49:29.319Z,-22.47
2024-02-23T12:54:33.177Z,-22.64
2024-02-23T12:59:36.936Z,-22.73
2024-02-23T13:04:41.048Z,-22.90
2024-02-23T13:09:45.108Z,-22.96
2024-02-23T13:14:48.745Z,-23.20
2024-02-23T13:20:00.894Z,-23.30
2024-02-23T13:25:12.395Z,-23.64
2024-02-23T13:30:16.659Z,-23.74
2024-02-23T13:35:20.598Z,-23.71
2024-02-23T13:40:24.426Z,-23.83
2024-02-23T13:45:28.421Z,-24.03
2024-02-23T13:50:32.589Z,-24.18
2024-02-23T13:55:36.444Z,-24.67
2024-02-23T14:00:40.195Z,-24.43
2024-02-23T14:05:46.736Z,-24.59
2024-02-23T14:10:50.722Z,-24.70
2024-02-23T14:15:55.764Z,-25.18
2024-02-23T14:20:59.739Z,-25.01
2024-02-23T14:26:03.862Z,-25.11
2024-02-23T14:31:07.571Z,-25.25
2024-02-23T14:36:11.561Z,-25.45
2024-02-23T14:41:15.418Z,-25.50
2024-02-23T14:46:19.339Z,-25.59
2024-02-23T14:51:23.458Z,-25.75
2024-02-23T14:56:27.146Z,-26.32
2024-02-23T15:01:31.141Z,-25.97
2024-02-23T15:06:35.243Z,-25.93
2024-02-23T15:11:39.000Z,-26.05
2024-02-23T15:16:43.233Z,-26.16
2024-02-23T15:21:46.971Z,-26.28
2024-02-23T15:26:50.696Z,-26.40
2024-02-23T15:31:54.616Z,-26.84
2024-02-23T15:36:58.264Z,-26.63
2024-02-23T15:42:02.978Z,-26.72
2024-02-23T15:47:07.074Z,-26.91
2024-02-23T15:52:11.162Z,-27.00
2024-02-23T15:57:15.024Z,-27.09
2024-02-23T16:02:19.060Z,-27.09
2024-02-23T16:07:22.909Z,-27.16
2024-02-23T16:12:27.175Z,-27.19
2024-02-23T16:17:30.965Z,-27.21
2024-02-23T16:22:35.109Z,-27.23
2024-02-23T16:27:40.566Z,-27.29
2024-02-23T16:32:44.440Z,-27.44
2024-02-23T16:37:48.302Z,-27.53
2024-02-23T16:42:52.091Z,-27.66
2024-02-23T16:47:56.665Z,-27.64
2024-02-23T16:53:01.526Z,-27.65
2024-02-23T16:58:05.840Z,-27.72
2024-02-23T17:03:10.229Z,-27.70
2024-02-23T17:08:14.781Z,-27.68
2024-02-23T17:13:18.707Z,-27.67
2024-02-23T17:18:25.326Z,-28.10
2024-02-23T17:23:29.072Z,-27.84
2024-02-23T17:28:33.352Z,-27.86
2024-02-23T17:33:37.361Z,-27.83
2024-02-23T17:38:41.299Z,-27.78
2024-02-23T17:43:45.173Z,-27.76
2024-02-23T17:48:48.800Z,-27.84
2024-02-23T17:53:54.507Z,-27.71
2024-02-23T17:58:58.527Z,-27.69
2024-02-23T18:04:02.569Z,-27.62
2024-02-23T18:09:07.165Z,-27.66
2024-02-23T18:14:11.194Z,-27.74
2024-02-23T18:19:15.108Z,-27.61
2024-02-23T18:24:18.744Z,-27.64
2024-02-23T18:29:22.645Z,-27.67
2024-02-23T18:34:26.689Z,-27.66
2024-02-23T18:39:30.653Z,-27.67
2024-02-23T18:44:34.489Z,-27.63
2024-02-23T18:49:38.702Z,-27.62
2024-02-23T18:54:42.865Z,-27.62
2024-02-23T18:59:46.909Z,-27.70
2024-02-23T19:04:50.625Z,-27.67
2024-02-23T19:09:54.512Z,-27.76
2024-02-23T19:14:58.280Z,-27.70
2024-02-23T19:20:02.214Z,-27.72
2024-02-23T19:25:07.132Z,-27.75
2024-02-23T19:30:14.069Z,-27.77
2024-02-23T19:35:17.803Z,-27.78
2024-02-23T19:40:25.617Z,-27.76
2024-02-23T19:45:29.397Z,-27.77
2024-02-23T19:50:33.303Z,-27.72
2024-02-23T19:55:37.212Z,-27.70
2024-02-23T20:00:41.010Z,-27.64
2024-02-23T20:05:44.904Z,-27.60
2024-02-23T20:10:48.715Z,-27.59
2024-02-23T20:15:54.564Z,-27.48
2024-02-23T20:20:58.272Z,-27.37
2024-02-23T20:26:02.141Z,-27.27
2024-02-23T20:31:08.489Z,-27.17
2024-02-23T20:36:14.823Z,-27.09
2024-02-23T20:41:20.857Z,-27.06
2024-02-23T20:46:25.980Z,-26.92
2024-02-23T20:51:30.394Z,-26.92
2024-02-23T20:56:36.221Z,-26.95
2024-02-23T21:01:40.105Z,-26.97
2024-02-23T21:06:44.233Z,-27.07
2024-02-23T21:11:47.835Z,-27.18
2024-02-23T21:16:51.699Z,-27.30
2024-02-23T21:21:55.602Z,-27.31
2024-02-23T21:26:59.260Z,-27.38
2024-02-23T21:32:03.191Z,-27.48
2024-02-23T21:37:08.803Z,-27.52
2024-02-23T21:42:12.480Z,-27.61
2024-02-23T21:47:16.443Z,-27.66
2024-02-23T21:52:20.108Z,-27.95
2024-02-23T21:57:27.465Z,-27.73
2024-02-23T22:02:32.036Z,-27.85
2024-02-23T22:07:38.232Z,-27.95
2024-02-23T22:12:44.148Z,-27.96
2024-02-23T22:17:48.688Z,-27.96
2024-02-23T22:22:52.506Z,-27.99
2024-02-23T22:27:56.368Z,-28.13
2024-02-23T22:33:00.465Z,-28.29
2024-02-23T22:38:05.045Z,-28.39
2024-02-23T22:43:08.925Z,-28.38
2024-02-23T22:48:14.556Z,-28.49
2024-02-23T22:53:18.508Z,-28.57
2024-02-23T22:58:23.000Z,-28.70
2024-02-23T23:03:26.989Z,-28.72
2024-02-23T23:08:31.105Z,-28.79
2024-02-23T23:13:34.915Z,-28.77
2024-02-23T23:18:38.761Z,-28.85
2024-02-23T23:23:42.604Z,-28.83
2024-02-23T23:28:47.071Z,-28.87
2024-02-23T23:33:53.461Z,-28.96
2024-02-23T23:38:58.063Z,-29.15
2024-02-23T23:44:01.660Z,-29.15
2024-02-23T23:49:05.474Z,-29.23
2024-02-23T23:54:09.260Z,-29.29
2024-02-23T23:59:13.841Z,-29.65
